createdAt,value
2023-04-18T00:00:21.742Z,2.17
2023-04-18T00:01:23.862Z,2.63
2023-04-18T00:02:26.215Z,2.15
2023-04-18T00:03:30.102Z,2.47
2023-04-18T00:04:34.269Z,2.08
2023-04-18T00:05:36.846Z,2.60
2023-04-18T00:06:38.851Z,2.08
2023-04-18T00:07:41.392Z,2.15
2023-04-18T00:08:43.340Z,2.50
2023-04-18T00:09:45.281Z,2.60
2023-04-18T00:10:47.562Z,2.78
2023-04-18T00:11:49.367Z,2.97
2023-04-18T00:12:51.721Z,2.50
2023-04-18T00:13:53.831Z,2.30
2023-04-18T00:14:55.819Z,2.30
2023-04-18T00:15:57.661Z,2.17
2023-04-18T00:16:59.758Z,1.95
2023-04-18T00:18:06.145Z,2.10
2023-04-18T00:19:08.853Z,2.63
2023-04-18T00:20:11.384Z,2.25
2023-04-18T00:21:13.696Z,2.55
2023-04-18T00:22:17.069Z,2.28
2023-04-18T00:23:21.602Z,2.38
2023-04-18T00:24:23.512Z,2.92
2023-04-18T00:25:25.651Z,2.95
2023-04-18T00:26:28.261Z,2.83
2023-04-18T00:27:30.266Z,2.47
2023-04-18T00:28:32.174Z,1.98
2023-04-18T00:29:34.148Z,2.92
2023-04-18T00:30:35.995Z,2.35
2023-04-18T00:31:38.115Z,1.80
2023-04-18T00:32:40.134Z,2.17
2023-04-18T00:33:42.168Z,2.10
2023-04-18T00:34:44.220Z,2.67
2023-04-18T00:35:46.098Z,2.25
2023-04-18T00:36:48.001Z,1.95
2023-04-18T00:37:49.964Z,2.30
2023-04-18T00:38:51.795Z,2.90
2023-04-18T00:39:54.093Z,2.05
2023-04-18T00:40:55.929Z,2.13
2023-04-18T00:41:58.009Z,2.35
2023-04-18T00:43:00.787Z,2.83
2023-04-18T00:44:02.804Z,2.03
2023-04-18T00:45:05.612Z,2.45
2023-04-18T00:46:09.375Z,2.67
2023-04-18T00:47:11.211Z,2.30
2023-04-18T00:48:13.130Z,2.83
2023-04-18T00:49:15.895Z,2.67
2023-04-18T00:50:18.593Z,2.88
2023-04-18T00:51:21.376Z,2.03
2023-04-18T00:52:27.341Z,2.28
2023-04-18T00:53:29.565Z,2.45
2023-04-18T00:54:31.538Z,2.67
2023-04-18T00:55:35.846Z,2.35
2023-04-18T00:56:38.004Z,2.17
2023-04-18T00:57:40.835Z,2.53
2023-04-18T00:58:42.940Z,2.40
2023-04-18T00:59:47.374Z,2.28
2023-04-18T01:00:49.551Z,2.67
2023-04-18T01:01:51.487Z,3.35
2023-04-18T01:02:54.103Z,2.38
2023-04-18T01:03:56.324Z,2.75
2023-04-18T01:05:01.337Z,3.20
2023-04-18T01:06:03.314Z,2.15
2023-04-18T01:07:06.354Z,2.40
2023-04-18T01:08:08.376Z,2.95
2023-04-18T01:09:11.021Z,2.75
2023-04-18T01:10:13.059Z,2.90
2023-04-18T01:11:15.082Z,2.80
2023-04-18T01:12:17.261Z,2.88
2023-04-18T01:13:20.956Z,3.20
2023-04-18T01:14:23.483Z,2.72
2023-04-18T01:15:25.557Z,2.92
2023-04-18T01:16:29.305Z,2.40
2023-04-18T01:17:31.868Z,2.80
2023-04-18T01:18:35.237Z,3.08
2023-04-18T01:19:40.591Z,2.70
2023-04-18T01:20:46.919Z,2.78
2023-04-18T01:21:48.878Z,2.83
2023-04-18T01:22:51.394Z,2.70
2023-04-18T01:23:54.012Z,2.75
2023-04-18T01:24:55.906Z,2.78
2023-04-18T01:25:57.894Z,2.58
2023-04-18T01:26:59.950Z,2.95
2023-04-18T01:28:02.931Z,2.70
2023-04-18T01:29:05.183Z,2.75
2023-04-18T01:30:08.260Z,2.72
2023-04-18T01:31:10.301Z,2.72
2023-04-18T01:32:12.730Z,2.03
2023-04-18T01:33:14.712Z,2.05
2023-04-18T01:34:18.192Z,2.67
2023-04-18T01:35:20.052Z,2.55
2023-04-18T01:36:22.100Z,2.30
2023-04-18T01:37:23.887Z,2.30
2023-04-18T01:38:26.080Z,2.78
2023-04-18T01:39:29.027Z,3.10
2023-04-18T01:40:31.493Z,2.55
2023-04-18T01:41:33.470Z,3.40
2023-04-18T01:42:35.448Z,2.58
2023-04-18T01:43:37.333Z,3.03
2023-04-18T01:44:39.952Z,2.70
2023-04-18T01:45:41.796Z,2.45
2023-04-18T01:46:43.694Z,2.78
2023-04-18T01:47:45.655Z,3.03
2023-04-18T01:48:48.375Z,2.63
2023-04-18T01:49:50.433Z,2.40
2023-04-18T01:50:52.375Z,2.60
2023-04-18T01:51:54.505Z,2.50
2023-04-18T01:52:56.479Z,2.67
2023-04-18T01:53:58.333Z,2.53
2023-04-18T01:55:02.225Z,2.53
2023-04-18T01:56:04.139Z,2.30
2023-04-18T01:57:06.338Z,2.15
2023-04-18T01:58:08.284Z,2.42
2023-04-18T01:59:10.224Z,2.20
2023-04-18T02:00:13.491Z,2.42
2023-04-18T02:01:15.602Z,2.42
2023-04-18T02:02:17.607Z,2.80
2023-04-18T02:03:20.230Z,2.35
2023-04-18T02:04:22.402Z,2.50
2023-04-18T02:05:24.487Z,2.20
2023-04-18T02:06:26.520Z,2.28
2023-04-18T02:07:28.551Z,2.58
2023-04-18T02:08:31.179Z,2.42
2023-04-18T02:09:33.081Z,2.30
2023-04-18T02:10:34.925Z,2.35
2023-04-18T02:11:36.989Z,2.45
2023-04-18T02:12:38.775Z,2.25
2023-04-18T02:13:41.492Z,3.25
2023-04-18T02:14:43.398Z,2.55
2023-04-18T02:15:48.954Z,3.05
2023-04-18T02:16:51.104Z,2.25
2023-04-18T02:17:53.887Z,2.83
2023-04-18T02:18:56.043Z,2.88
2023-04-18T02:19:57.961Z,2.65
2023-04-18T02:20:59.848Z,2.30
2023-04-18T02:22:01.778Z,2.92
2023-04-18T02:23:04.079Z,2.75
2023-04-18T02:24:05.982Z,3.08
2023-04-18T02:25:08.321Z,2.50
2023-04-18T02:26:11.270Z,2.90
2023-04-18T02:27:13.148Z,3.10
2023-04-18T02:28:15.174Z,3.28
2023-04-18T02:29:17.185Z,3.25
2023-04-18T02:30:19.263Z,3.00
2023-04-18T02:31:22.920Z,2.80
2023-04-18T02:32:24.900Z,2.75
2023-04-18T02:33:27.399Z,2.22
2023-04-18T02:34:29.425Z,3.00
2023-04-18T02:35:31.877Z,3.22
2023-04-18T02:36:34.136Z,2.40
2023-04-18T02:37:36.927Z,2.47
2023-04-18T02:38:38.932Z,2.33
2023-04-18T02:39:41.932Z,2.70
2023-04-18T02:40:43.747Z,2.97
2023-04-18T02:41:45.788Z,2.67
2023-04-18T02:42:47.775Z,2.67
2023-04-18T02:43:49.733Z,2.60
2023-04-18T02:44:52.628Z,2.95
2023-04-18T02:45:54.545Z,2.83
2023-04-18T02:46:56.378Z,2.90
2023-04-18T02:47:58.601Z,2.78
2023-04-18T02:49:00.765Z,2.33
2023-04-18T02:50:04.116Z,2.88
2023-04-18T02:51:07.753Z,2.70
2023-04-18T02:52:09.841Z,2.97
2023-04-18T02:53:11.839Z,2.78
2023-04-18T02:54:14.119Z,2.58
2023-04-18T02:55:16.483Z,2.92
2023-04-18T02:56:18.947Z,3.33
2023-04-18T02:57:21.086Z,2.80
2023-04-18T02:58:23.299Z,2.42
2023-04-18T02:59:25.155Z,2.45
2023-04-18T03:00:27.079Z,2.97
2023-04-18T03:01:29.225Z,3.13
2023-04-18T03:02:31.393Z,3.20
2023-04-18T03:03:33.302Z,3.00
2023-04-18T03:04:35.675Z,2.95
2023-04-18T03:05:37.587Z,3.40
2023-04-18T03:06:39.516Z,3.03
2023-04-18T03:07:41.397Z,2.67
2023-04-18T03:08:43.306Z,3.08
2023-04-18T03:09:45.402Z,2.90
2023-04-18T03:10:47.286Z,3.00
2023-04-18T03:11:49.048Z,3.20
2023-04-18T03:12:50.959Z,3.00
2023-04-18T03:13:54.181Z,3.17
2023-04-18T03:14:56.255Z,4.15
2023-04-18T03:15:58.260Z,3.72
2023-04-18T03:17:00.334Z,3.40
2023-04-18T03:18:02.188Z,3.13
2023-04-18T03:19:04.198Z,2.85
2023-04-18T03:20:06.802Z,2.88
2023-04-18T03:21:09.077Z,2.58
2023-04-18T03:22:10.883Z,2.92
2023-04-18T03:23:12.763Z,3.58
2023-04-18T03:24:14.810Z,2.92
2023-04-18T03:25:17.085Z,2.72
2023-04-18T03:26:19.428Z,3.03
2023-04-18T03:27:21.264Z,2.65
2023-04-18T03:28:23.122Z,2.90
2023-04-18T03:29:25.029Z,3.25
2023-04-18T03:30:27.059Z,3.33
2023-04-18T03:31:29.033Z,2.97
2023-04-18T03:32:33.913Z,2.90
2023-04-18T03:33:35.950Z,3.00
2023-04-18T03:34:37.774Z,3.30
2023-04-18T03:35:39.770Z,2.55
2023-04-18T03:36:42.012Z,2.85
2023-04-18T03:37:44.067Z,8.40
2023-04-18T03:38:47.345Z,14.57
2023-04-18T03:39:49.242Z,16.30
2023-04-18T03:40:51.084Z,7.38
2023-04-18T03:41:53.031Z,4.28
2023-04-18T03:42:54.809Z,4.03
2023-04-18T03:43:56.852Z,4.47
2023-04-18T03:44:58.948Z,5.20
2023-04-18T03:46:01.027Z,3.85
2023-04-18T03:47:03.302Z,4.45
2023-04-18T03:48:05.624Z,3.50
2023-04-18T03:49:07.690Z,4.05
2023-04-18T03:50:09.892Z,3.63
2023-04-18T03:51:11.819Z,3.60
2023-04-18T03:52:13.799Z,3.53
2023-04-18T03:53:16.093Z,3.80
2023-04-18T03:54:18.591Z,3.85
2023-04-18T03:55:21.048Z,3.47
2023-04-18T03:56:23.478Z,4.38
2023-04-18T03:57:25.587Z,4.03
2023-04-18T03:58:27.591Z,3.70
2023-04-18T03:59:30.416Z,3.40
2023-04-18T04:00:32.590Z,3.75
2023-04-18T04:01:34.618Z,3.70
2023-04-18T04:02:37.085Z,3.92
2023-04-18T04:03:39.222Z,3.97
2023-04-18T04:04:41.486Z,3.95
2023-04-18T04:05:43.563Z,3.58
2023-04-18T04:06:45.641Z,4.35
2023-04-18T04:07:47.796Z,4.13
2023-04-18T04:08:49.786Z,3.58
2023-04-18T04:09:51.593Z,4.05
2023-04-18T04:10:53.614Z,4.03
2023-04-18T04:11:55.670Z,4.53
2023-04-18T04:12:57.532Z,4.35
2023-04-18T04:13:59.365Z,3.72
2023-04-18T04:15:01.542Z,3.88
2023-04-18T04:16:05.188Z,4.20
2023-04-18T04:17:07.423Z,4.70
2023-04-18T04:18:09.347Z,3.85
2023-04-18T04:19:11.287Z,4.53
2023-04-18T04:20:13.240Z,4.00
2023-04-18T04:21:15.948Z,3.90
2023-04-18T04:22:17.893Z,4.00
2023-04-18T04:23:19.868Z,4.85
2023-04-18T04:24:22.798Z,4.55
2023-04-18T04:25:28.813Z,3.92
2023-04-18T04:26:30.932Z,4.53
2023-04-18T04:27:34.172Z,3.50
2023-04-18T04:28:36.269Z,4.18
2023-04-18T04:29:39.382Z,4.00
2023-04-18T04:30:41.801Z,4.50
2023-04-18T04:31:44.017Z,4.68
2023-04-18T04:32:46.028Z,4.03
2023-04-18T04:33:48.050Z,4.40
2023-04-18T04:34:50.620Z,3.88
2023-04-18T04:35:52.894Z,3.65
2023-04-18T04:36:55.122Z,4.03
2023-04-18T04:37:57.130Z,4.10
2023-04-18T04:38:59.621Z,4.28
2023-04-18T04:40:01.560Z,3.88
2023-04-18T04:41:04.046Z,3.45
2023-04-18T04:42:06.050Z,4.20
2023-04-18T04:43:12.697Z,4.68
2023-04-18T04:44:17.755Z,4.00
2023-04-18T04:45:20.548Z,3.70
2023-04-18T04:46:23.353Z,3.88
2023-04-18T04:47:26.269Z,3.88
2023-04-18T04:48:28.222Z,4.18
2023-04-18T04:49:30.165Z,3.80
2023-04-18T04:50:36.302Z,3.72
2023-04-18T04:51:38.403Z,3.92
2023-04-18T04:52:40.404Z,4.30
2023-04-18T04:53:42.349Z,4.10
2023-04-18T04:54:45.999Z,4.50
2023-04-18T04:55:48.413Z,3.75
2023-04-18T04:56:50.619Z,3.92
2023-04-18T04:57:52.430Z,3.50
2023-04-18T04:58:56.193Z,3.80
2023-04-18T04:59:58.236Z,4.45
2023-04-18T05:01:00.795Z,4.05
2023-04-18T05:02:02.698Z,3.72
2023-04-18T05:03:05.020Z,3.83
2023-04-18T05:04:07.085Z,3.38
2023-04-18T05:05:09.439Z,3.78
2023-04-18T05:06:11.408Z,4.70
2023-04-18T05:07:13.504Z,3.83
2023-04-18T05:08:15.650Z,3.40
2023-04-18T05:09:17.590Z,3.45
2023-04-18T05:10:19.626Z,4.25
2023-04-18T05:11:22.329Z,3.78
2023-04-18T05:12:24.155Z,3.72
2023-04-18T05:13:26.027Z,3.95
2023-04-18T05:14:27.966Z,4.03
2023-04-18T05:15:32.038Z,3.45
2023-04-18T05:17:35.740Z,3.78
2023-04-18T05:18:39.438Z,3.25
2023-04-18T05:19:43.445Z,2.83
2023-04-18T05:20:45.387Z,3.13
2023-04-18T05:21:47.162Z,3.22
2023-04-18T05:22:49.130Z,3.30
2023-04-18T05:23:50.946Z,3.60
2023-04-18T05:24:53.177Z,3.60
2023-04-18T05:25:55.234Z,3.15
2023-04-18T05:26:57.901Z,3.38
2023-04-18T05:28:04.891Z,3.13
2023-04-18T05:29:06.960Z,3.22
2023-04-18T05:30:09.305Z,3.13
2023-04-18T05:31:11.248Z,3.58
2023-04-18T05:32:13.233Z,3.45
2023-04-18T05:33:15.464Z,3.35
2023-04-18T05:34:17.266Z,3.03
2023-04-18T05:35:19.197Z,3.67
2023-04-18T05:36:21.055Z,4.05
2023-04-18T05:37:23.105Z,3.78
2023-04-18T05:38:25.163Z,4.55
2023-04-18T05:39:27.682Z,3.80
2023-04-18T05:40:30.101Z,2.88
2023-04-18T05:41:32.077Z,3.45
2023-04-18T05:42:33.933Z,3.65
2023-04-18T05:43:36.022Z,4.00
2023-04-18T05:44:37.852Z,3.55
2023-04-18T05:45:39.771Z,4.43
2023-04-18T05:46:42.565Z,4.07
2023-04-18T05:47:44.908Z,4.18
2023-04-18T05:48:46.727Z,4.32
2023-04-18T05:49:48.826Z,4.18
2023-04-18T05:50:50.815Z,3.85
2023-04-18T05:51:53.095Z,3.58
2023-04-18T05:52:55.125Z,4.15
2023-04-18T05:53:57.020Z,4.13
2023-04-18T05:54:58.922Z,4.45
2023-04-18T05:56:01.473Z,4.25
2023-04-18T05:57:04.729Z,4.22
2023-04-18T05:58:07.772Z,4.00
2023-04-18T05:59:09.606Z,4.30
2023-04-18T06:00:12.477Z,3.60
2023-04-18T06:01:14.482Z,3.72
2023-04-18T06:02:16.753Z,4.10
2023-04-18T06:03:18.929Z,3.90
2023-04-18T06:04:21.475Z,4.28
2023-04-18T06:05:24.017Z,3.80
2023-04-18T06:06:26.404Z,4.63
2023-04-18T06:07:28.383Z,3.25
2023-04-18T06:08:30.353Z,4.10
2023-04-18T06:09:32.171Z,3.80
2023-04-18T06:10:34.067Z,3.55
2023-04-18T06:11:36.248Z,3.70
2023-04-18T06:12:38.150Z,3.95
2023-04-18T06:13:40.056Z,3.65
2023-04-18T06:14:42.090Z,4.07
2023-04-18T06:15:44.016Z,3.38
2023-04-18T06:16:46.234Z,3.90
2023-04-18T06:17:48.333Z,2.88
2023-04-18T06:18:50.282Z,3.17
2023-04-18T06:19:52.074Z,3.00
2023-04-18T06:20:54.508Z,2.80
2023-04-18T06:21:56.488Z,3.38
2023-04-18T06:22:58.360Z,2.80
2023-04-18T06:24:01.757Z,3.05
2023-04-18T06:25:04.078Z,3.22
2023-04-18T06:26:07.308Z,3.42
2023-04-18T06:27:17.552Z,3.03
2023-04-18T06:28:26.467Z,3.25
2023-04-18T06:29:30.619Z,2.95
2023-04-18T06:30:32.567Z,2.80
2023-04-18T06:31:34.489Z,3.40
2023-04-18T06:32:36.386Z,3.10
2023-04-18T06:33:38.352Z,3.05
2023-04-18T06:34:40.861Z,2.72
2023-04-18T06:35:42.881Z,3.00
2023-04-18T06:36:44.756Z,3.80
2023-04-18T06:37:46.673Z,3.47
2023-04-18T06:38:48.709Z,3.15
2023-04-18T06:39:50.769Z,3.17
2023-04-18T06:40:52.696Z,3.53
2023-04-18T06:41:54.548Z,2.90
2023-04-18T06:42:56.479Z,3.03
2023-04-18T06:45:03.972Z,2.85
2023-04-18T06:46:06.512Z,3.13
2023-04-18T06:47:08.748Z,3.97
2023-04-18T06:48:11.016Z,2.70
2023-04-18T06:49:12.921Z,3.28
2023-04-18T06:50:15.646Z,2.88
2023-04-18T06:51:17.506Z,2.90
2023-04-18T06:52:19.426Z,2.92
2023-04-18T06:53:21.706Z,2.95
2023-04-18T06:54:23.636Z,3.08
2023-04-18T06:55:25.475Z,2.50
2023-04-18T06:56:27.432Z,2.42
2023-04-18T06:57:29.303Z,2.75
2023-04-18T06:58:31.308Z,2.83
2023-04-18T06:59:33.188Z,3.33
2023-04-18T07:00:35.176Z,2.60
2023-04-18T07:01:43.672Z,2.60
2023-04-18T07:02:45.820Z,2.45
2023-04-18T07:03:48.126Z,2.78
2023-04-18T07:04:50.408Z,2.80
2023-04-18T07:05:52.420Z,3.67
2023-04-18T07:06:54.317Z,2.92
2023-04-18T07:07:56.157Z,3.10
2023-04-18T07:09:01.048Z,3.00
2023-04-18T07:10:03.126Z,2.53
2023-04-18T07:12:09.182Z,2.80
2023-04-18T07:13:11.083Z,3.20
2023-04-18T07:14:13.320Z,2.47
2023-04-18T07:15:15.668Z,3.03
2023-04-18T07:16:17.876Z,2.80
2023-04-18T07:17:19.971Z,2.25
2023-04-18T07:18:34.157Z,3.15
2023-04-18T07:19:41.287Z,3.10
2023-04-18T07:20:43.186Z,2.60
2023-04-18T07:21:46.276Z,3.05
2023-04-18T07:22:48.951Z,2.85
2023-04-18T07:23:50.848Z,4.60
2023-04-18T07:24:52.669Z,3.17
2023-04-18T07:25:54.824Z,3.60
2023-04-18T07:26:57.000Z,2.45
2023-04-18T07:27:59.908Z,2.80
2023-04-18T07:29:01.741Z,2.90
2023-04-18T07:30:04.567Z,2.65
2023-04-18T07:31:11.306Z,2.70
2023-04-18T07:32:13.473Z,2.65
2023-04-18T07:33:15.246Z,3.00
2023-04-18T07:34:17.979Z,3.10
2023-04-18T07:35:20.005Z,2.88
2023-04-18T07:36:21.960Z,3.03
2023-04-18T07:37:24.105Z,2.67
2023-04-18T07:38:27.430Z,2.60
2023-04-18T07:39:29.461Z,2.90
2023-04-18T07:40:31.384Z,2.42
2023-04-18T07:41:34.394Z,3.05
2023-04-18T07:42:36.528Z,2.40
2023-04-18T07:43:38.999Z,2.75
2023-04-18T07:44:40.883Z,3.00
2023-04-18T07:45:43.535Z,3.15
2023-04-18T07:46:46.396Z,2.78
2023-04-18T07:47:48.408Z,2.70
2023-04-18T07:48:51.019Z,3.38
2023-04-18T07:49:52.825Z,2.70
2023-04-18T07:50:54.924Z,2.40
2023-04-18T07:51:56.751Z,2.58
2023-04-18T07:52:58.741Z,3.03
2023-04-18T07:54:00.973Z,2.42
2023-04-18T07:55:02.945Z,2.42
2023-04-18T07:56:05.007Z,2.75
2023-04-18T07:57:06.995Z,2.75
2023-04-18T07:58:09.412Z,2.47
2023-04-18T07:59:11.715Z,2.65
2023-04-18T08:00:14.338Z,2.80
2023-04-18T08:01:18.722Z,2.53
2023-04-18T08:02:21.741Z,2.85
2023-04-18T08:03:24.049Z,2.60
2023-04-18T08:04:29.126Z,3.05
2023-04-18T08:05:32.229Z,2.45
2023-04-18T08:06:34.976Z,2.58
2023-04-18T08:07:37.181Z,2.78
2023-04-18T08:08:38.964Z,2.40
2023-04-18T08:09:40.920Z,3.03
2023-04-18T08:10:42.766Z,2.55
2023-04-18T08:11:44.779Z,2.55
2023-04-18T08:12:46.664Z,2.30
2023-04-18T08:13:48.714Z,2.28
2023-04-18T08:14:50.636Z,2.60
2023-04-18T08:15:52.823Z,2.50
2023-04-18T08:16:54.822Z,2.75
2023-04-18T08:17:56.934Z,2.40
2023-04-18T08:18:58.760Z,2.10
2023-04-18T08:20:04.983Z,2.33
2023-04-18T08:21:06.864Z,2.45
2023-04-18T08:22:10.529Z,2.17
2023-04-18T08:23:13.339Z,2.95
2023-04-18T08:24:15.600Z,2.00
2023-04-18T08:25:17.899Z,2.30
2023-04-18T08:26:20.045Z,1.98
2023-04-18T08:27:21.819Z,2.50
2023-04-18T08:28:23.680Z,2.42
2023-04-18T08:29:25.499Z,2.38
2023-04-18T08:30:27.850Z,2.40
2023-04-18T08:31:31.788Z,2.58
2023-04-18T08:32:34.099Z,2.58
2023-04-18T08:33:36.210Z,2.38
2023-04-18T08:34:38.232Z,2.30
2023-04-18T08:35:40.097Z,2.58
2023-04-18T08:36:42.046Z,2.40
2023-04-18T08:37:44.012Z,2.50
2023-04-18T08:38:46.918Z,2.38
2023-04-18T08:39:48.824Z,2.65
2023-04-18T08:40:50.985Z,2.00
2023-04-18T08:42:00.034Z,2.22
2023-04-18T08:43:05.081Z,2.42
2023-04-18T08:44:07.497Z,2.35
2023-04-18T08:45:09.768Z,2.30
2023-04-18T08:46:11.929Z,2.42
2023-04-18T08:47:14.754Z,2.25
2023-04-18T08:48:18.878Z,2.70
2023-04-18T08:49:24.350Z,2.25
2023-04-18T08:50:27.146Z,2.63
2023-04-18T08:51:40.420Z,2.60
2023-04-18T08:52:48.899Z,3.15
2023-04-18T08:53:50.993Z,2.25
2023-04-18T08:54:53.352Z,3.00
2023-04-18T08:55:57.352Z,2.53
2023-04-18T08:57:13.919Z,2.00
2023-04-18T08:58:22.794Z,2.30
2023-04-18T08:59:25.398Z,2.15
2023-04-18T09:00:27.634Z,2.00
2023-04-18T09:01:58.980Z,2.42
2023-04-18T09:03:03.941Z,2.50
2023-04-18T09:04:06.512Z,2.45
2023-04-18T09:05:13.100Z,2.00
2023-04-18T09:06:19.450Z,2.10
2023-04-18T09:07:31.211Z,1.92
2023-04-18T09:08:33.121Z,2.63
2023-04-18T09:09:50.431Z,2.33
2023-04-18T09:10:52.868Z,2.40
2023-04-18T09:12:09.067Z,2.30
2023-04-18T09:13:11.266Z,2.20
2023-04-18T09:14:26.054Z,2.17
2023-04-18T09:15:29.432Z,2.17
2023-04-18T09:16:47.090Z,2.10
2023-04-18T09:17:53.246Z,2.10
2023-04-18T09:19:18.303Z,2.00
2023-04-18T09:20:43.820Z,2.35
2023-04-18T09:21:47.302Z,2.28
2023-04-18T09:22:51.475Z,2.63
2023-04-18T09:24:21.194Z,2.85
2023-04-18T09:25:29.895Z,1.92
2023-04-18T09:26:36.484Z,2.08
2023-04-18T09:27:38.377Z,2.30
2023-04-18T09:28:41.472Z,2.75
2023-04-18T09:29:49.403Z,2.22
2023-04-18T09:30:52.826Z,2.97
2023-04-18T09:31:56.101Z,2.55
2023-04-18T09:33:00.288Z,2.53
2023-04-18T09:34:03.258Z,2.55
2023-04-18T09:35:05.778Z,2.20
2023-04-18T09:36:32.477Z,2.22
2023-04-18T09:37:35.356Z,2.60
2023-04-18T09:38:41.352Z,2.83
2023-04-18T09:39:44.799Z,2.30
2023-04-18T09:40:46.719Z,2.58
2023-04-18T09:41:58.781Z,2.88
2023-04-18T09:43:00.791Z,2.72
2023-04-18T09:44:14.909Z,2.70
2023-04-18T09:45:17.024Z,2.95
2023-04-18T09:46:19.258Z,2.13
2023-04-18T09:47:21.160Z,3.00
2023-04-18T09:48:23.606Z,2.50
2023-04-18T09:49:25.706Z,3.25
2023-04-18T09:50:27.622Z,2.97
2023-04-18T09:51:31.819Z,2.10
2023-04-18T09:52:42.075Z,2.45
2023-04-18T09:53:45.195Z,2.58
2023-04-18T09:54:55.957Z,3.20
2023-04-18T09:55:58.066Z,2.40
2023-04-18T09:57:02.986Z,2.90
2023-04-18T09:58:06.039Z,2.65
2023-04-18T09:59:09.625Z,2.45
2023-04-18T10:00:24.646Z,2.55
2023-04-18T10:01:29.720Z,3.20
2023-04-18T10:02:40.936Z,2.53
2023-04-18T10:03:48.151Z,2.85
2023-04-18T10:04:53.886Z,3.20
2023-04-18T10:05:57.903Z,2.60
2023-04-18T10:07:00.943Z,2.75
2023-04-18T10:08:04.344Z,2.70
2023-04-18T10:09:09.667Z,2.22
2023-04-18T10:10:12.012Z,2.90
2023-04-18T10:11:14.502Z,2.30
2023-04-18T10:12:18.603Z,3.15
2023-04-18T10:13:20.843Z,2.50
2023-04-18T10:14:23.307Z,3.60
2023-04-18T10:15:28.083Z,2.65
2023-04-18T10:16:33.396Z,2.63
2023-04-18T10:18:04.242Z,2.80
2023-04-18T10:19:26.172Z,2.40
2023-04-18T10:20:30.215Z,2.95
2023-04-18T10:21:32.489Z,2.88
2023-04-18T10:22:35.488Z,2.63
2023-04-18T10:23:39.376Z,2.80
2023-04-18T10:25:55.890Z,2.72
2023-04-18T10:26:59.355Z,2.65
2023-04-18T10:28:03.072Z,2.78
2023-04-18T10:30:09.114Z,2.88
2023-04-18T10:31:11.855Z,2.65
2023-04-18T10:32:13.824Z,2.58
2023-04-18T10:33:32.442Z,2.70
2023-04-18T10:34:37.880Z,2.72
2023-04-18T10:36:15.019Z,2.00
2023-04-18T10:37:17.919Z,2.78
2023-04-18T10:38:23.327Z,2.50
2023-04-18T10:39:26.131Z,3.13
2023-04-18T10:40:35.063Z,3.58
2023-04-18T10:41:49.476Z,2.75
2023-04-18T10:42:52.599Z,3.00
2023-04-18T10:44:18.201Z,2.88
2023-04-18T10:45:22.137Z,2.88
2023-04-18T10:46:31.760Z,2.85
2023-04-18T10:47:35.405Z,2.60
2023-04-18T10:48:39.342Z,2.58
2023-04-18T10:49:54.097Z,2.72
2023-04-18T10:51:13.414Z,2.78
2023-04-18T10:52:15.781Z,2.65
2023-04-18T10:53:17.754Z,2.78
2023-04-18T10:54:32.582Z,2.55
2023-04-18T10:55:34.864Z,3.05
2023-04-18T10:56:37.306Z,2.72
2023-04-18T10:57:41.092Z,2.65
2023-04-18T10:59:50.865Z,2.85
2023-04-18T11:00:53.676Z,2.80
2023-04-18T11:02:30.474Z,3.03
2023-04-18T11:03:35.804Z,2.78
2023-04-18T11:04:38.201Z,2.90
2023-04-18T11:05:40.464Z,2.90
2023-04-18T11:06:56.089Z,2.72
2023-04-18T11:07:58.248Z,3.33
2023-04-18T11:09:13.867Z,2.83
2023-04-18T11:10:19.724Z,2.80
2023-04-18T11:11:21.990Z,2.55
2023-04-18T11:12:24.072Z,2.35
2023-04-18T11:13:27.106Z,2.90
2023-04-18T11:14:43.025Z,2.92
2023-04-18T11:15:45.064Z,2.58
2023-04-18T11:16:47.073Z,2.90
2023-04-18T11:17:57.773Z,3.13
2023-04-18T11:19:00.139Z,3.13
2023-04-18T11:20:09.115Z,2.55
2023-04-18T11:21:11.204Z,2.55
2023-04-18T11:22:14.249Z,3.65
2023-04-18T11:23:23.099Z,2.83
2023-04-18T11:24:25.028Z,2.72
2023-04-18T11:25:36.686Z,2.65
2023-04-18T11:26:39.006Z,2.83
2023-04-18T11:27:45.756Z,3.10
2023-04-18T11:28:57.157Z,2.78
2023-04-18T11:29:59.214Z,3.08
2023-04-18T11:31:02.980Z,2.80
2023-04-18T11:32:09.615Z,3.00
2023-04-18T11:33:12.693Z,2.90
2023-04-18T11:34:15.483Z,2.75
2023-04-18T11:35:18.142Z,3.13
2023-04-18T11:36:20.078Z,3.13
2023-04-18T11:37:22.745Z,2.35
2023-04-18T11:38:28.949Z,2.80
2023-04-18T11:39:34.962Z,2.80
2023-04-18T11:40:37.450Z,3.10
2023-04-18T11:41:41.567Z,2.97
2023-04-18T11:42:43.657Z,2.35
2023-04-18T11:43:46.919Z,3.47
2023-04-18T11:44:49.423Z,3.30
2023-04-18T11:45:56.354Z,3.25
2023-04-18T11:46:58.539Z,3.03
2023-04-18T11:48:01.167Z,3.08
2023-04-18T11:49:03.287Z,2.72
2023-04-18T11:50:07.358Z,3.45
2023-04-18T11:51:34.705Z,2.78
2023-04-18T11:52:37.308Z,2.60
2023-04-18T11:53:39.821Z,3.10
2023-04-18T11:54:44.113Z,2.60
2023-04-18T11:55:56.010Z,2.90
2023-04-18T11:56:57.921Z,2.85
2023-04-18T11:58:03.400Z,3.03
2023-04-18T11:59:09.715Z,2.60
2023-04-18T12:00:12.862Z,3.20
2023-04-18T12:01:19.374Z,2.38
2023-04-18T12:02:22.836Z,3.15
2023-04-18T12:03:25.234Z,2.58
2023-04-18T12:04:28.156Z,3.00
2023-04-18T12:05:36.205Z,2.85
2023-04-18T12:06:52.890Z,2.80
2023-04-18T12:07:56.117Z,2.60
2023-04-18T12:09:00.935Z,2.78
2023-04-18T12:10:05.341Z,2.80
2023-04-18T12:11:07.340Z,2.97
2023-04-18T12:12:09.285Z,3.00
2023-04-18T12:13:11.503Z,2.88
2023-04-18T12:14:21.738Z,2.95
2023-04-18T12:15:27.335Z,3.08
2023-04-18T12:16:30.874Z,3.10
2023-04-18T12:17:33.309Z,3.22
2023-04-18T12:18:35.119Z,2.55
2023-04-18T12:19:37.528Z,2.70
2023-04-18T12:20:40.644Z,2.67
2023-04-18T12:22:16.997Z,2.83
2023-04-18T12:23:40.538Z,2.85
2023-04-18T12:24:43.593Z,2.50
2023-04-18T12:25:45.827Z,3.05
2023-04-18T12:26:48.922Z,3.03
2023-04-18T12:28:01.650Z,3.03
2023-04-18T12:29:03.714Z,2.80
2023-04-18T12:30:06.498Z,2.50
2023-04-18T12:31:08.581Z,2.97
2023-04-18T12:32:10.663Z,3.13
2023-04-18T12:33:12.670Z,2.85
2023-04-18T12:34:14.902Z,3.00
2023-04-18T12:35:19.437Z,3.10
2023-04-18T12:36:23.211Z,3.17
2023-04-18T12:38:27.705Z,3.15
2023-04-18T12:39:29.728Z,2.75
2023-04-18T12:40:31.787Z,2.95
2023-04-18T12:41:33.742Z,2.45
2023-04-18T12:42:35.716Z,2.90
2023-04-18T12:43:37.664Z,4.15
2023-04-18T12:44:39.465Z,2.45
2023-04-18T12:45:41.676Z,2.88
2023-04-18T12:46:43.572Z,3.05
2023-04-18T12:47:47.698Z,3.58
2023-04-18T12:48:49.623Z,3.13
2023-04-18T12:49:51.837Z,3.28
2023-04-18T12:50:53.652Z,3.03
2023-04-18T12:51:55.801Z,3.17
2023-04-18T12:52:59.715Z,3.00
2023-04-18T12:54:02.116Z,3.22
2023-04-18T12:55:05.106Z,3.22
2023-04-18T12:56:07.502Z,3.22
2023-04-18T12:57:09.311Z,2.72
2023-04-18T12:58:11.251Z,3.30
2023-04-18T12:59:13.301Z,2.80
2023-04-18T13:00:15.621Z,2.88
2023-04-18T13:01:17.610Z,2.67
2023-04-18T13:02:19.730Z,2.70
2023-04-18T13:03:22.174Z,3.13
2023-04-18T13:04:24.348Z,3.28
2023-04-18T13:05:32.542Z,3.40
2023-04-18T13:06:35.722Z,3.03
2023-04-18T13:07:40.674Z,3.58
2023-04-18T13:08:42.883Z,3.17
2023-04-18T13:09:46.636Z,3.40
2023-04-18T13:11:50.786Z,3.30
2023-04-18T13:12:53.198Z,3.70
2023-04-18T13:13:55.410Z,2.55
2023-04-18T13:14:57.929Z,2.78
2023-04-18T13:15:59.968Z,3.35
2023-04-18T13:17:02.141Z,3.10
2023-04-18T13:18:06.430Z,2.97
2023-04-18T13:19:08.718Z,3.17
2023-04-18T13:20:12.601Z,3.22
2023-04-18T13:21:14.474Z,3.03
2023-04-18T13:22:18.123Z,3.00
2023-04-18T13:24:21.982Z,3.10
2023-04-18T13:25:24.115Z,3.40
2023-04-18T13:26:26.498Z,3.17
2023-04-18T13:27:28.859Z,3.47
2023-04-18T13:28:30.952Z,3.08
2023-04-18T13:29:32.877Z,3.65
2023-04-18T13:30:36.052Z,3.28
2023-04-18T13:31:38.003Z,3.10
2023-04-18T13:32:40.877Z,3.47
2023-04-18T13:33:45.253Z,2.75
2023-04-18T13:34:48.667Z,2.85
2023-04-18T13:35:50.661Z,2.80
2023-04-18T13:36:52.580Z,3.70
2023-04-18T13:37:54.961Z,3.25
2023-04-18T13:38:56.829Z,2.90
2023-04-18T13:39:58.795Z,3.47
2023-04-18T13:41:11.419Z,3.17
2023-04-18T13:42:16.165Z,3.10
2023-04-18T13:43:18.191Z,3.20
2023-04-18T13:44:20.375Z,2.97
2023-04-18T13:45:22.378Z,3.38
2023-04-18T13:46:26.736Z,3.25
2023-04-18T13:47:29.843Z,2.60
2023-04-18T13:48:31.862Z,2.97
2023-04-18T13:49:35.256Z,3.03
2023-04-18T13:50:37.161Z,3.00
2023-04-18T13:51:39.218Z,3.28
2023-04-18T13:52:41.169Z,3.17
2023-04-18T13:53:42.991Z,3.35
2023-04-18T13:54:44.917Z,2.88
2023-04-18T13:55:47.320Z,3.60
2023-04-18T13:56:49.526Z,3.90
2023-04-18T13:57:51.403Z,3.10
2023-04-18T13:58:53.275Z,3.15
2023-04-18T13:59:55.070Z,3.70
2023-04-18T14:00:57.072Z,3.95
2023-04-18T14:01:59.288Z,3.50
2023-04-18T14:03:01.568Z,3.17
2023-04-18T14:04:03.834Z,2.78
2023-04-18T14:05:06.496Z,3.47
2023-04-18T14:06:08.484Z,3.25
2023-04-18T14:07:10.909Z,3.67
2023-04-18T14:08:12.956Z,3.60
2023-04-18T14:09:15.093Z,3.53
2023-04-18T14:10:17.067Z,2.92
2023-04-18T14:11:19.309Z,2.92
2023-04-18T14:12:21.847Z,3.15
2023-04-18T14:13:23.742Z,2.85
2023-04-18T14:14:25.988Z,3.30
2023-04-18T14:15:28.087Z,3.28